createdAt,value
2023-05-18T00:01:41.802Z,12.08
2023-05-18T00:04:10.157Z,12.28
2023-05-18T00:06:38.027Z,12.11
2023-05-18T00:09:05.434Z,11.95
2023-05-18T00:11:33.645Z,12.06
2023-05-18T00:14:01.068Z,11.97
2023-05-18T00:16:28.511Z,12.30
2023-05-18T00:18:56.664Z,12.23
2023-05-18T00:21:30.667Z,11.72
2023-05-18T00:23:58.573Z,11.90
2023-05-18T00:26:26.763Z,11.89
2023-05-18T00:28:54.568Z,12.09
2023-05-18T00:31:22.274Z,12.14
2023-05-18T00:33:49.687Z,11.98
2023-05-18T00:36:17.482Z,11.80
2023-05-18T00:38:45.160Z,12.09
2023-05-18T00:41:12.622Z,11.77
2023-05-18T00:43:41.538Z,12.38
2023-05-18T00:46:09.276Z,12.19
2023-05-18T00:48:36.822Z,12.02
2023-05-18T00:51:05.225Z,11.75
2023-05-18T00:53:33.988Z,11.68
2023-05-18T00:56:01.407Z,11.76
2023-05-18T00:58:29.162Z,11.74
2023-05-18T01:00:58.105Z,12.10
2023-05-18T01:03:26.338Z,11.71
2023-05-18T01:05:58.179Z,11.50
2023-05-18T01:08:27.203Z,11.89
2023-05-18T01:11:05.737Z,11.86
2023-05-18T01:14:06.100Z,11.99
2023-05-18T01:17:02.049Z,11.73
2023-05-18T01:19:38.793Z,11.84
2023-05-18T01:22:12.749Z,11.68
2023-05-18T01:24:45.677Z,11.71
2023-05-18T01:27:16.620Z,12.09
2023-05-18T01:29:48.712Z,11.36
2023-05-18T01:32:24.988Z,11.32
2023-05-18T01:34:52.699Z,11.90
2023-05-18T01:37:20.182Z,11.69
2023-05-18T01:39:47.691Z,11.67
2023-05-18T01:42:21.319Z,11.47
2023-05-18T01:45:01.266Z,11.57
2023-05-18T01:47:31.941Z,11.27
2023-05-18T01:50:19.089Z,11.33
2023-05-18T01:52:52.806Z,11.53
2023-05-18T01:55:21.146Z,11.61
2023-05-18T01:57:50.053Z,11.43
2023-05-18T02:00:18.789Z,11.37
2023-05-18T02:02:47.254Z,11.42
2023-05-18T02:05:15.595Z,11.48
2023-05-18T02:07:44.248Z,11.83
2023-05-18T02:10:12.377Z,11.75
2023-05-18T02:12:39.810Z,11.58
2023-05-18T02:15:08.529Z,12.07
2023-05-18T02:17:39.091Z,11.97
2023-05-18T02:20:11.209Z,11.84
2023-05-18T02:22:39.168Z,11.34
2023-05-18T02:25:07.341Z,11.90
2023-05-18T02:27:36.083Z,11.62
2023-05-18T02:30:05.361Z,11.47
2023-05-18T02:32:32.881Z,12.04
2023-05-18T02:35:02.524Z,11.65
2023-05-18T02:37:34.429Z,11.84
2023-05-18T02:40:01.854Z,11.47
2023-05-18T02:42:30.158Z,11.83
2023-05-18T02:44:57.942Z,11.87
2023-05-18T02:47:26.008Z,11.64
2023-05-18T02:49:53.662Z,11.71
2023-05-18T02:52:21.384Z,11.76
2023-05-18T02:54:48.871Z,11.69
2023-05-18T02:57:17.172Z,11.64
2023-05-18T02:59:45.006Z,11.48
2023-05-18T03:02:14.543Z,11.71
2023-05-18T03:04:42.879Z,11.65
2023-05-18T03:07:10.699Z,11.52
2023-05-18T03:09:38.332Z,12.11
2023-05-18T03:12:06.718Z,11.79
2023-05-18T03:14:36.448Z,11.70
2023-05-18T03:17:06.074Z,11.72
2023-05-18T03:19:35.041Z,11.99
2023-05-18T03:22:03.860Z,12.11
2023-05-18T03:24:40.727Z,12.22
2023-05-18T03:27:08.982Z,11.65
2023-05-18T03:29:36.500Z,12.25
2023-05-18T03:32:04.582Z,11.87
2023-05-18T03:34:33.822Z,11.76
2023-05-18T03:37:02.016Z,11.44
2023-05-18T03:39:29.973Z,11.78
2023-05-18T03:41:57.885Z,12.01
2023-05-18T03:44:25.471Z,12.07
2023-05-18T03:46:53.272Z,11.65
2023-05-18T03:49:21.671Z,11.76
2023-05-18T03:51:49.114Z,11.77
2023-05-18T03:54:16.516Z,11.51
2023-05-18T03:56:44.288Z,11.90
2023-05-18T03:59:11.752Z,12.37
2023-05-18T04:01:42.396Z,11.99
2023-05-18T04:04:17.898Z,11.97
2023-05-18T04:06:46.813Z,11.77
2023-05-18T04:09:17.293Z,12.04
2023-05-18T04:11:45.290Z,12.15
2023-05-18T04:14:14.229Z,12.13
2023-05-18T04:16:42.124Z,11.94
2023-05-18T04:19:10.497Z,11.58
2023-05-18T04:21:38.122Z,11.54
2023-05-18T04:24:07.208Z,11.32
2023-05-18T04:26:36.716Z,11.58
2023-05-18T04:29:04.497Z,11.44
2023-05-18T04:31:32.304Z,11.58
2023-05-18T04:34:00.648Z,11.69
2023-05-18T04:36:30.593Z,11.84
2023-05-18T04:39:03.643Z,11.90
2023-05-18T04:41:34.175Z,11.87
2023-05-18T04:44:03.033Z,11.80
2023-05-18T04:46:30.811Z,11.86
2023-05-18T04:48:58.428Z,11.68
2023-05-18T04:51:26.184Z,11.96
2023-05-18T04:53:55.747Z,11.83
2023-05-18T04:56:23.177Z,11.99
2023-05-18T04:58:51.567Z,11.96
2023-05-18T05:01:19.516Z,11.88
2023-05-18T05:03:47.100Z,11.58
2023-05-18T05:06:15.952Z,12.22
2023-05-18T05:08:43.457Z,12.08
2023-05-18T05:11:10.862Z,12.12
2023-05-18T05:13:38.583Z,12.09
2023-05-18T05:16:06.429Z,12.31
2023-05-18T05:18:33.965Z,12.36
2023-05-18T05:21:01.660Z,12.11
2023-05-18T05:23:29.544Z,11.86
2023-05-18T05:25:58.089Z,11.97
2023-05-18T05:28:27.464Z,12.12
2023-05-18T05:30:54.881Z,12.35
2023-05-18T05:33:25.387Z,12.18
2023-05-18T05:35:53.270Z,12.15
2023-05-18T05:38:20.846Z,12.24
2023-05-18T05:40:48.569Z,12.17
2023-05-18T05:43:16.360Z,12.31
2023-05-18T05:45:46.031Z,12.43
2023-05-18T05:48:13.843Z,12.53
2023-05-18T05:50:41.902Z,12.14
2023-05-18T05:53:09.379Z,12.21
2023-05-18T05:55:41.279Z,12.45
2023-05-18T05:58:10.433Z,12.64
2023-05-18T06:00:37.915Z,12.77
2023-05-18T06:03:06.035Z,12.62
2023-05-18T06:05:34.363Z,12.91
2023-05-18T06:08:02.552Z,12.87
2023-05-18T06:10:31.219Z,12.35
2023-05-18T06:12:58.876Z,12.41
2023-05-18T06:15:26.625Z,12.93
2023-05-18T06:17:54.334Z,12.65
2023-05-18T06:20:22.250Z,12.62
2023-05-18T06:22:49.770Z,12.63
2023-05-18T06:25:18.323Z,12.80
2023-05-18T06:27:46.112Z,12.44
2023-05-18T06:30:13.904Z,12.72
2023-05-18T06:32:41.771Z,12.73
2023-05-18T06:35:09.700Z,12.48
2023-05-18T06:37:37.668Z,12.79
2023-05-18T06:40:07.414Z,13.13
2023-05-18T06:42:34.936Z,12.97
2023-05-18T06:45:03.670Z,12.77
2023-05-18T06:47:34.840Z,13.05
2023-05-18T06:50:02.310Z,13.18
2023-05-18T06:52:30.080Z,13.24
2023-05-18T06:54:57.810Z,12.78
2023-05-18T06:57:25.701Z,12.99
2023-05-18T06:59:53.948Z,13.12
2023-05-18T07:02:22.359Z,13.21
2023-05-18T07:04:50.311Z,13.28
2023-05-18T07:07:17.813Z,12.75
2023-05-18T07:09:45.811Z,12.61
2023-05-18T07:12:13.367Z,12.35
2023-05-18T07:14:40.858Z,13.09
2023-05-18T07:17:09.638Z,12.71
2023-05-18T07:19:37.125Z,12.96
2023-05-18T07:22:04.766Z,12.87
2023-05-18T07:24:32.516Z,13.14
2023-05-18T07:27:01.068Z,13.54
2023-05-18T07:29:29.476Z,13.04
2023-05-18T07:31:59.533Z,13.05
2023-05-18T07:34:27.340Z,13.35
2023-05-18T07:36:54.925Z,13.39
2023-05-18T07:39:28.567Z,13.60
2023-05-18T07:41:56.463Z,13.60
2023-05-18T07:44:24.598Z,13.95
2023-05-18T07:46:52.212Z,13.63
2023-05-18T07:49:19.766Z,13.82
2023-05-18T07:51:47.481Z,13.66
2023-05-18T07:54:14.900Z,13.65
2023-05-18T07:56:43.670Z,13.79
2023-05-18T07:59:11.396Z,13.69
2023-05-18T08:01:38.918Z,14.01
2023-05-18T08:04:06.723Z,13.92
2023-05-18T08:06:34.264Z,13.78
2023-05-18T08:09:01.674Z,13.59
2023-05-18T08:11:29.452Z,13.74
2023-05-18T08:13:56.825Z,14.14
2023-05-18T08:16:24.557Z,13.71
2023-05-18T08:18:52.281Z,13.50
2023-05-18T08:21:19.748Z,13.55
2023-05-18T08:23:47.187Z,13.90
2023-05-18T08:26:14.858Z,13.67
2023-05-18T08:28:42.607Z,13.61
2023-05-18T08:31:12.459Z,13.61
2023-05-18T08:33:40.471Z,14.13
2023-05-18T08:36:08.970Z,13.90
2023-05-18T08:38:36.380Z,14.04
2023-05-18T08:41:23.656Z,14.20
2023-05-18T08:43:54.920Z,14.23
2023-05-18T08:46:35.701Z,14.34
2023-05-18T08:49:05.034Z,14.49
2023-05-18T08:51:37.628Z,14.60
2023-05-18T08:54:06.223Z,14.42
2023-05-18T08:56:34.904Z,15.00
2023-05-18T08:59:05.023Z,14.86
2023-05-18T09:01:32.632Z,14.61
2023-05-18T09:04:00.983Z,14.78
2023-05-18T09:06:28.973Z,14.77
2023-05-18T09:08:59.644Z,14.53
2023-05-18T09:11:28.205Z,14.81
2023-05-18T09:13:55.749Z,14.20
2023-05-18T09:16:23.357Z,14.67
2023-05-18T09:18:51.872Z,14.90
2023-05-18T09:21:19.392Z,14.85
2023-05-18T09:23:47.594Z,15.16
2023-05-18T09:26:15.506Z,15.34
2023-05-18T09:28:43.584Z,15.48
2023-05-18T09:31:17.363Z,15.25
2023-05-18T09:33:46.150Z,14.83
2023-05-18T09:36:15.394Z,15.24
2023-05-18T09:38:46.934Z,15.03
2023-05-18T09:41:17.394Z,15.34
2023-05-18T09:43:46.427Z,15.15
2023-05-18T09:46:14.539Z,14.97
2023-05-18T09:48:45.399Z,15.22
2023-05-18T09:51:16.449Z,15.07
2023-05-18T09:53:54.376Z,15.25
2023-05-18T09:56:23.078Z,15.49
2023-05-18T09:58:51.941Z,15.31
2023-05-18T10:01:19.524Z,15.43
2023-05-18T10:03:48.571Z,15.30
2023-05-18T10:06:19.895Z,15.13
2023-05-18T10:08:47.810Z,14.67
2023-05-18T10:11:18.787Z,15.02
2023-05-18T10:13:46.934Z,15.30
2023-05-18T10:16:17.043Z,15.44
2023-05-18T10:18:45.250Z,15.46
2023-05-18T10:21:14.662Z,15.35
2023-05-18T10:23:44.293Z,15.56
2023-05-18T10:26:12.415Z,15.60
2023-05-18T10:28:49.997Z,15.52
2023-05-18T10:31:18.109Z,15.82
2023-05-18T10:33:46.284Z,15.89
2023-05-18T10:36:15.512Z,15.87
2023-05-18T10:38:45.272Z,15.64
2023-05-18T10:41:13.633Z,15.82
2023-05-18T10:43:42.203Z,15.74
2023-05-18T10:46:10.121Z,15.73
2023-05-18T10:48:41.087Z,15.69
2023-05-18T10:51:08.993Z,15.91
2023-05-18T10:53:37.040Z,15.58
2023-05-18T10:56:04.587Z,15.73
2023-05-18T10:58:32.215Z,15.78
2023-05-18T11:01:01.836Z,15.93
2023-05-18T11:03:30.254Z,15.63
2023-05-18T11:06:08.232Z,15.58
2023-05-18T11:08:51.994Z,15.63
2023-05-18T11:11:24.255Z,15.84
2023-05-18T11:13:51.952Z,15.66
2023-05-18T11:16:20.773Z,15.91
2023-05-18T11:18:50.522Z,16.04
2023-05-18T11:21:24.311Z,15.85
2023-05-18T11:24:29.239Z,15.88
2023-05-18T11:26:59.036Z,15.62
2023-05-18T11:29:35.838Z,16.05
2023-05-18T11:32:04.911Z,15.79
2023-05-18T11:34:47.618Z,15.48
2023-05-18T11:37:38.641Z,15.44
2023-05-18T11:40:13.800Z,15.80
2023-05-18T11:42:41.540Z,15.64
2023-05-18T11:45:10.211Z,15.55
2023-05-18T11:47:39.941Z,15.68
2023-05-18T11:50:09.219Z,15.74
2023-05-18T11:52:51.994Z,15.70
2023-05-18T11:55:21.015Z,16.08
2023-05-18T11:57:52.528Z,15.98
2023-05-18T12:00:21.193Z,15.64
2023-05-18T12:02:49.371Z,15.78
2023-05-18T12:05:17.301Z,15.78
2023-05-18T12:07:45.521Z,15.63
2023-05-18T12:10:14.921Z,15.77
2023-05-18T12:12:42.992Z,15.96
2023-05-18T12:15:11.725Z,15.79
2023-05-18T12:17:40.841Z,15.83
2023-05-18T12:20:15.301Z,15.97
2023-05-18T12:22:45.152Z,15.98
2023-05-18T12:25:12.824Z,15.92
2023-05-18T12:27:41.984Z,15.82
2023-05-18T12:30:16.722Z,15.76
2023-05-18T12:32:45.697Z,15.87
2023-05-18T12:35:13.326Z,15.91
2023-05-18T12:37:45.971Z,16.13
2023-05-18T12:40:15.236Z,16.03
2023-05-18T12:43:05.202Z,15.83
2023-05-18T12:45:34.086Z,15.86
2023-05-18T12:48:09.596Z,16.20
2023-05-18T12:50:46.578Z,16.47
2023-05-18T12:53:14.683Z,16.33
2023-05-18T12:55:42.273Z,16.52
2023-05-18T12:58:19.244Z,15.98
2023-05-18T13:00:48.717Z,16.00
2023-05-18T13:03:18.470Z,15.84
2023-05-18T13:06:01.718Z,15.90
2023-05-18T13:08:29.453Z,15.91
2023-05-18T13:13:29.281Z,15.88
2023-05-18T13:15:59.405Z,16.03
2023-05-18T13:18:27.959Z,16.09
2023-05-18T13:20:56.565Z,16.14
2023-05-18T13:23:27.034Z,16.22
2023-05-18T13:25:56.710Z,16.18
2023-05-18T13:28:26.772Z,16.24
2023-05-18T13:30:54.171Z,16.26
2023-05-18T13:33:21.546Z,16.44
2023-05-18T13:35:50.025Z,16.38
2023-05-18T13:38:17.522Z,16.35
2023-05-18T13:40:46.475Z,16.23
2023-05-18T13:43:14.248Z,16.51
2023-05-18T13:45:42.312Z,16.54
2023-05-18T13:48:10.752Z,15.89
2023-05-18T13:50:39.805Z,16.35
2023-05-18T13:53:07.326Z,15.85
2023-05-18T13:55:35.120Z,16.29
2023-05-18T13:58:02.785Z,16.09
2023-05-18T14:00:33.096Z,16.19
2023-05-18T14:03:01.412Z,16.05
2023-05-18T14:05:29.029Z,15.87
2023-05-18T14:07:56.879Z,16.10
2023-05-18T14:10:24.536Z,16.06
2023-05-18T14:12:51.917Z,16.36
2023-05-18T14:15:19.212Z,16.53
2023-05-18T14:17:46.819Z,16.04
2023-05-18T14:20:14.167Z,16.22
2023-05-18T14:22:42.133Z,16.30
2023-05-18T14:25:09.856Z,16.54
2023-05-18T14:27:37.191Z,16.53
2023-05-18T14:30:06.444Z,16.83
2023-05-18T14:32:34.187Z,16.63
2023-05-18T14:35:01.504Z,16.41
2023-05-18T14:37:29.396Z,16.53
2023-05-18T14:39:57.149Z,16.36
2023-05-18T14:42:24.459Z,16.21
2023-05-18T14:44:53.774Z,16.18
2023-05-18T14:47:22.483Z,16.18
2023-05-18T14:49:49.755Z,16.41
2023-05-18T14:52:17.087Z,16.28
2023-05-18T14:54:44.653Z,16.11
2023-05-18T14:57:12.849Z,16.21
2023-05-18T14:59:40.849Z,16.17
2023-05-18T15:02:08.618Z,15.89
2023-05-18T15:04:36.299Z,16.17
2023-05-18T15:07:04.735Z,15.81
2023-05-18T15:09:33.049Z,15.82
2023-05-18T15:12:03.144Z,15.96
2023-05-18T15:14:30.758Z,16.28
2023-05-18T15:16:58.865Z,16.33
2023-05-18T15:19:26.255Z,16.73
2023-05-18T15:21:53.841Z,16.28
2023-05-18T15:24:21.499Z,16.51
2023-05-18T15:26:48.894Z,16.57
2023-05-18T15:29:16.354Z,16.60
2023-05-18T15:31:45.672Z,16.61
2023-05-18T15:34:13.052Z,16.70
2023-05-18T15:36:40.307Z,16.94
2023-05-18T15:39:09.329Z,16.63
2023-05-18T15:41:36.687Z,16.65
2023-05-18T15:44:04.183Z,16.62
2023-05-18T15:46:35.264Z,16.46
2023-05-18T15:49:03.002Z,16.64
2023-05-18T15:51:31.463Z,16.45
2023-05-18T15:53:59.189Z,16.77
2023-05-18T15:56:27.462Z,16.74
2023-05-18T15:58:54.877Z,17.14
2023-05-18T16:01:23.773Z,16.07
2023-05-18T16:03:51.695Z,16.49
2023-05-18T16:06:19.016Z,16.25
2023-05-18T16:08:46.422Z,15.83
2023-05-18T16:11:14.052Z,15.91
2023-05-18T16:13:41.389Z,16.09
2023-05-18T16:16:10.421Z,16.07
2023-05-18T16:18:38.249Z,15.90
2023-05-18T16:21:05.665Z,16.10
2023-05-18T16:23:32.945Z,15.85
2023-05-18T16:26:05.068Z,15.76
2023-05-18T16:28:32.942Z,16.09
2023-05-18T16:31:01.362Z,16.32
2023-05-18T16:33:29.141Z,16.29
2023-05-18T16:36:17.089Z,16.27
2023-05-18T16:38:44.554Z,16.20
2023-05-18T16:41:12.756Z,16.00
2023-05-18T16:43:40.271Z,16.08
2023-05-18T16:46:08.255Z,16.20
2023-05-18T16:48:36.465Z,16.25
2023-05-18T16:51:06.859Z,16.19
2023-05-18T16:53:34.360Z,16.15
2023-05-18T16:56:02.349Z,16.22
2023-05-18T16:58:30.253Z,16.56
2023-05-18T17:00:57.629Z,16.67
2023-05-18T17:03:25.050Z,16.67
2023-05-18T17:05:52.709Z,16.66
2023-05-18T17:08:20.005Z,17.06
2023-05-18T17:10:47.346Z,16.79
2023-05-18T17:13:15.119Z,16.57
2023-05-18T17:15:43.070Z,16.84
2023-05-18T17:18:10.440Z,16.86
2023-05-18T17:20:37.987Z,16.84
2023-05-18T17:23:05.633Z,16.86
2023-05-18T17:25:32.979Z,16.96
2023-05-18T17:28:01.097Z,16.94
2023-05-18T17:30:28.429Z,16.89
2023-05-18T17:32:56.480Z,16.65
2023-05-18T17:35:24.109Z,16.75
2023-05-18T17:37:51.418Z,16.83
2023-05-18T17:40:19.150Z,16.71
2023-05-18T17:42:46.888Z,16.69
2023-05-18T17:45:14.190Z,16.77
2023-05-18T17:47:41.989Z,16.79
2023-05-18T17:50:09.880Z,16.60
2023-05-18T17:52:37.456Z,16.76
2023-05-18T17:55:05.576Z,16.60
2023-05-18T17:57:33.890Z,16.67
2023-05-18T18:00:02.158Z,16.46
2023-05-18T18:02:38.935Z,16.30
2023-05-18T18:05:07.786Z,16.23
2023-05-18T18:07:35.540Z,16.14
2023-05-18T18:10:03.269Z,16.16
2023-05-18T18:12:31.505Z,15.96
2023-05-18T18:15:00.068Z,16.08
2023-05-18T18:17:29.009Z,16.02
2023-05-18T18:19:57.194Z,16.27
2023-05-18T18:22:25.009Z,16.22
2023-05-18T18:24:52.400Z,16.18
2023-05-18T18:27:20.704Z,16.38
2023-05-18T18:29:49.506Z,16.35
2023-05-18T18:32:17.459Z,16.25
2023-05-18T18:34:45.366Z,16.42
2023-05-18T18:37:12.809Z,16.63
2023-05-18T18:39:40.240Z,16.62
2023-05-18T18:42:07.953Z,16.81
2023-05-18T18:44:35.845Z,16.75
2023-05-18T18:47:04.221Z,16.62
2023-05-18T18:49:32.619Z,16.78
2023-05-18T18:52:00.408Z,16.71
2023-05-18T18:54:28.690Z,16.76
2023-05-18T18:56:56.724Z,16.60
2023-05-18T18:59:24.138Z,16.21
2023-05-18T19:01:51.848Z,16.40
2023-05-18T19:04:21.039Z,16.41
2023-05-18T19:06:49.030Z,16.57
2023-05-18T19:09:17.527Z,16.51
2023-05-18T19:11:45.263Z,15.59
2023-05-18T19:14:12.924Z,16.26
2023-05-18T19:16:41.165Z,16.35
2023-05-18T19:19:09.098Z,16.44
2023-05-18T19:21:37.555Z,16.30
2023-05-18T19:24:05.375Z,16.32
2023-05-18T19:26:33.658Z,16.28
2023-05-18T19:29:01.185Z,16.14
2023-05-18T19:31:31.865Z,16.23
2023-05-18T19:34:00.414Z,16.36
2023-05-18T19:36:27.963Z,16.24
2023-05-18T19:38:55.886Z,16.34
2023-05-18T19:41:24.738Z,16.31
2023-05-18T19:43:52.440Z,16.52
2023-05-18T19:46:20.166Z,16.42
2023-05-18T19:48:48.018Z,16.37
2023-05-18T19:51:15.592Z,16.21
2023-05-18T19:53:43.444Z,16.33
2023-05-18T19:56:12.222Z,16.54
2023-05-18T19:58:39.671Z,16.53
2023-05-18T20:01:07.097Z,16.59
2023-05-18T20:03:35.210Z,16.44
2023-05-18T20:06:03.871Z,16.42
2023-05-18T20:08:31.338Z,16.30
2023-05-18T20:11:00.055Z,16.28
2023-05-18T20:13:27.551Z,16.42
2023-05-18T20:15:54.999Z,16.37
2023-05-18T20:18:23.835Z,16.31
2023-05-18T20:20:51.466Z,16.39
2023-05-18T20:23:18.917Z,16.38
2023-05-18T20:25:48.225Z,16.41
2023-05-18T20:28:16.180Z,16.41
2023-05-18T20:30:44.085Z,16.01
2023-05-18T20:33:12.593Z,16.37
2023-05-18T20:35:40.129Z,15.97
2023-05-18T20:38:07.757Z,16.47
2023-05-18T20:40:40.240Z,16.14
2023-05-18T20:43:09.984Z,15.53
2023-05-18T20:45:41.434Z,15.90
2023-05-18T20:48:09.179Z,16.04
2023-05-18T20:50:38.085Z,16.10
2023-05-18T20:53:06.136Z,16.25
2023-05-18T20:55:33.538Z,16.36
2023-05-18T20:58:02.642Z,16.27
2023-05-18T21:00:30.600Z,16.28
2023-05-18T21:02:58.167Z,16.46
2023-05-18T21:05:25.861Z,16.56
2023-05-18T21:07:53.768Z,16.66
2023-05-18T21:10:21.234Z,16.72
2023-05-18T21:12:48.740Z,16.75
2023-05-18T21:15:16.658Z,16.74
2023-05-18T21:17:44.185Z,16.78
2023-05-18T21:20:12.984Z,16.72
2023-05-18T21:22:41.093Z,16.72
2023-05-18T21:25:08.802Z,16.66
2023-05-18T21:27:37.318Z,16.59
2023-05-18T21:30:05.554Z,16.32
2023-05-18T21:32:33.163Z,16.49
2023-05-18T21:35:00.715Z,16.60
2023-05-18T21:37:29.416Z,16.63
2023-05-18T21:39:56.905Z,16.73
2023-05-18T21:42:24.360Z,16.70
2023-05-18T21:44:52.157Z,16.82
2023-05-18T21:47:19.591Z,16.70
2023-05-18T21:49:47.086Z,16.50
2023-05-18T21:52:15.576Z,16.42
2023-05-18T21:54:43.016Z,16.56
2023-05-18T21:57:10.649Z,16.56
2023-05-18T21:59:38.391Z,16.68
2023-05-18T22:02:06.826Z,16.35
2023-05-18T22:04:34.612Z,15.97
2023-05-18T22:07:02.164Z,16.10
2023-05-18T22:09:29.599Z,15.70
2023-05-18T22:11:57.601Z,16.04
2023-05-18T22:14:25.082Z,16.12
2023-05-18T22:16:52.538Z,16.08
2023-05-18T22:19:20.242Z,15.85
2023-05-18T22:21:47.690Z,15.86
2023-05-18T22:24:15.121Z,15.88
2023-05-18T22:26:43.332Z,16.10
2023-05-18T22:29:11.139Z,16.07
2023-05-18T22:31:38.670Z,16.02
2023-05-18T22:34:06.414Z,16.15
2023-05-18T22:36:35.312Z,15.86
2023-05-18T22:39:02.820Z,15.87
2023-05-18T22:41:30.665Z,16.28
2023-05-18T22:43:58.130Z,15.75
2023-05-18T22:46:25.728Z,15.95
2023-05-18T22:48:56.163Z,15.81
2023-05-18T22:51:23.697Z,15.73
2023-05-18T22:53:51.346Z,15.83
2023-05-18T22:56:20.172Z,15.60
2023-05-18T22:58:47.718Z,15.53
2023-05-18T23:01:15.219Z,15.43
2023-05-18T23:03:42.942Z,15.67
2023-05-18T23:06:10.588Z,15.72
2023-05-18T23:08:38.036Z,15.79
2023-05-18T23:11:06.025Z,15.92
2023-05-18T23:13:37.429Z,15.99
2023-05-18T23:16:05.957Z,15.95
2023-05-18T23:18:33.711Z,16.17
2023-05-18T23:21:01.317Z,16.03
2023-05-18T23:23:28.759Z,16.15
2023-05-18T23:25:57.174Z,16.12
2023-05-18T23:28:24.597Z,15.99
2023-05-18T23:30:52.067Z,15.91
2023-05-18T23:33:20.033Z,15.75
2023-05-18T23:35:48.891Z,15.95
2023-05-18T23:38:35.629Z,15.94
2023-05-18T23:41:07.262Z,16.11
2023-05-18T23:43:34.941Z,16.20
2023-05-18T23:46:03.027Z,16.26
2023-05-18T23:48:31.050Z,16.13
2023-05-18T23:51:02.388Z,16.30
2023-05-18T23:53:32.862Z,16.11
2023-05-18T23:56:00.890Z,16.15
2023-05-18T23:58:32.366Z,16.00
